sensor_id;sensor_type;location;lat;lon;timestamp;pressure;altitude;pressure_sealevel;temperature;humidity
32486;BME280;18935;52.236;21.134;2022-08-03T00:00:06;100528.28;;;16.89;100.00
32486;BME280;18935;52.236;21.134;2022-08-03T00:02:32;100529.78;;;16.93;100.00
32486;BME280;18935;52.236;21.134;2022-08-03T00:04:57;100534.47;;;16.88;100.00
32486;BME280;18935;52.236;21.134;2022-08-03T00:07:23;100531.44;;;16.96;100.00
32486;BME280;18935;52.236;21.134;2022-08-03T00:09:48;100521.22;;;16.90;100.00
32486;BME280;18935;52.236;21.134;2022-08-03T00:12:14;100534.22;;;16.93;100.00
32486;BME280;18935;52.236;21.134;2022-08-03T00:14:40;100533.28;;;16.94;100.00
32486;BME280;18935;52.236;21.134;2022-08-03T00:17:05;100531.97;;;16.85;100.00
32486;BME280;18935;52.236;21.134;2022-08-03T00:19:33;100532.34;;;16.79;100.00
32486;BME280;18935;52.236;21.134;2022-08-03T00:21:58;100542.78;;;16.81;100.00
32486;BME280;18935;52.236;21.134;2022-08-03T00:24:23;100541.16;;;16.78;100.00
32486;BME280;18935;52.236;21.134;2022-08-03T00:26:49;100539.63;;;16.74;100.00
32486;BME280;18935;52.236;21.134;2022-08-03T00:29:14;100542.09;;;16.77;100.00
32486;BME280;18935;52.236;21.134;2022-08-03T00:31:39;100539.34;;;16.79;100.00
32486;BME280;18935;52.236;21.134;2022-08-03T00:34:05;100537.06;;;16.73;100.00
32486;BME280;18935;52.236;21.134;2022-08-03T00:36:30;100530.31;;;16.67;100.00
32486;BME280;18935;52.236;21.134;2022-08-03T00:38:55;100533.16;;;16.62;100.00
32486;BME280;18935;52.236;21.134;2022-08-03T00:41:21;100535.88;;;16.61;100.00
32486;BME280;18935;52.236;21.134;2022-08-03T00:43:46;100534.38;;;16.57;100.00
32486;BME280;18935;52.236;21.134;2022-08-03T00:46:12;100536.38;;;16.52;100.00
32486;BME280;18935;52.236;21.134;2022-08-03T00:48:37;100526.00;;;16.49;100.00
32486;BME280;18935;52.236;21.134;2022-08-03T00:51:03;100531.09;;;16.52;100.00
32486;BME280;18935;52.236;21.134;2022-08-03T00:53:28;100535.34;;;16.54;100.00
32486;BME280;18935;52.236;21.134;2022-08-03T00:55:54;100535.28;;;16.56;100.00
32486;BME280;18935;52.236;21.134;2022-08-03T00:58:19;100533.66;;;16.53;100.00
32486;BME280;18935;52.236;21.134;2022-08-03T01:00:45;100531.66;;;16.58;100.00
32486;BME280;18935;52.236;21.134;2022-08-03T01:03:10;100535.28;;;16.56;100.00
32486;BME280;18935;52.236;21.134;2022-08-03T01:05:51;100539.19;;;16.49;100.00
32486;BME280;18935;52.236;21.134;2022-08-03T01:11:50;100545.59;;;16.43;100.00
32486;BME280;18935;52.236;21.134;2022-08-03T01:14:57;100542.59;;;16.33;100.00
32486;BME280;18935;52.236;21.134;2022-08-03T01:17:32;100540.28;;;16.27;100.00
32486;BME280;18935;52.236;21.134;2022-08-03T01:20:04;100542.28;;;16.22;100.00
32486;BME280;18935;52.236;21.134;2022-08-03T01:28:36;100537.31;;;16.16;100.00
32486;BME280;18935;52.236;21.134;2022-08-03T01:31:06;100537.50;;;16.13;100.00
32486;BME280;18935;52.236;21.134;2022-08-03T01:33:41;100541.50;;;16.20;100.00
32486;BME280;18935;52.236;21.134;2022-08-03T01:36:15;100538.25;;;16.15;100.00
32486;BME280;18935;52.236;21.134;2022-08-03T01:38:47;100541.97;;;16.11;100.00
32486;BME280;18935;52.236;21.134;2022-08-03T01:41:20;100535.69;;;16.13;100.00
32486;BME280;18935;52.236;21.134;2022-08-03T01:43:47;100535.16;;;16.07;100.00
32486;BME280;18935;52.236;21.134;2022-08-03T01:46:16;100532.91;;;15.99;100.00
32486;BME280;18935;52.236;21.134;2022-08-03T01:48:44;100536.09;;;15.89;100.00
32486;BME280;18935;52.236;21.134;2022-08-03T01:51:10;100529.66;;;15.94;100.00
32486;BME280;18935;52.236;21.134;2022-08-03T01:53:38;100525.09;;;15.98;100.00
32486;BME280;18935;52.236;21.134;2022-08-03T01:56:07;100530.66;;;15.92;100.00
32486;BME280;18935;52.236;21.134;2022-08-03T01:58:36;100525.09;;;15.98;100.00
32486;BME280;18935;52.236;21.134;2022-08-03T02:01:04;100525.00;;;16.17;100.00
32486;BME280;18935;52.236;21.134;2022-08-03T02:03:30;100524.63;;;16.24;100.00
32486;BME280;18935;52.236;21.134;2022-08-03T02:05:58;100514.03;;;16.26;100.00
32486;BME280;18935;52.236;21.134;2022-08-03T02:08:26;100525.09;;;16.15;100.00
32486;BME280;18935;52.236;21.134;2022-08-03T02:10:54;100520.13;;;16.09;100.00
32486;BME280;18935;52.236;21.134;2022-08-03T02:13:23;100523.41;;;15.97;100.00
32486;BME280;18935;52.236;21.134;2022-08-03T02:15:51;100521.69;;;15.96;100.00
32486;BME280;18935;52.236;21.134;2022-08-03T02:18:19;100518.59;;;15.88;100.00
32486;BME280;18935;52.236;21.134;2022-08-03T02:20:45;100513.47;;;15.84;100.00
32486;BME280;18935;52.236;21.134;2022-08-03T02:23:11;100512.22;;;15.74;100.00
32486;BME280;18935;52.236;21.134;2022-08-03T02:25:42;100514.78;;;15.76;100.00
32486;BME280;18935;52.236;21.134;2022-08-03T02:28:14;100510.38;;;15.76;100.00
32486;BME280;18935;52.236;21.134;2022-08-03T02:30:42;100513.16;;;15.73;100.00
32486;BME280;18935;52.236;21.134;2022-08-03T02:33:22;100512.22;;;15.74;100.00
32486;BME280;18935;52.236;21.134;2022-08-03T02:35:50;100506.41;;;15.68;100.00
32486;BME280;18935;52.236;21.134;2022-08-03T02:38:19;100516.78;;;15.71;100.00
32486;BME280;18935;52.236;21.134;2022-08-03T02:40:45;100517.63;;;15.71;100.00
32486;BME280;18935;52.236;21.134;2022-08-03T02:43:16;100525.50;;;15.71;100.00
32486;BME280;18935;52.236;21.134;2022-08-03T02:45:44;100524.13;;;15.64;100.00
32486;BME280;18935;52.236;21.134;2022-08-03T02:48:11;100519.06;;;15.60;100.00
32486;BME280;18935;52.236;21.134;2022-08-03T02:50:41;100522.34;;;15.65;100.00
32486;BME280;18935;52.236;21.134;2022-08-03T02:53:09;100526.91;;;15.61;100.00
32486;BME280;18935;52.236;21.134;2022-08-03T02:55:36;100528.16;;;15.52;100.00
32486;BME280;18935;52.236;21.134;2022-08-03T02:58:02;100520.84;;;15.59;100.00
32486;BME280;18935;52.236;21.134;2022-08-03T03:00:30;100524.59;;;15.53;100.00
32486;BME280;18935;52.236;21.134;2022-08-03T03:02:57;100519.22;;;15.56;100.00
32486;BME280;18935;52.236;21.134;2022-08-03T03:05:24;100523.59;;;15.56;100.00
32486;BME280;18935;52.236;21.134;2022-08-03T03:07:50;100527.16;;;15.55;100.00
32486;BME280;18935;52.236;21.134;2022-08-03T03:10:15;100528.53;;;15.45;100.00
32486;BME280;18935;52.236;21.134;2022-08-03T03:12:42;100529.75;;;15.56;100.00
32486;BME280;18935;52.236;21.134;2022-08-03T03:15:10;100539.25;;;15.59;100.00
32486;BME280;18935;52.236;21.134;2022-08-03T03:17:36;100523.59;;;15.56;100.00
32486;BME280;18935;52.236;21.134;2022-08-03T03:20:02;100531.09;;;15.65;100.00
32486;BME280;18935;52.236;21.134;2022-08-03T03:22:29;100524.19;;;15.63;100.00
32486;BME280;18935;52.236;21.134;2022-08-03T03:24:57;100535.59;;;15.80;100.00
32486;BME280;18935;52.236;21.134;2022-08-03T03:27:23;100547.16;;;15.95;100.00
32486;BME280;18935;52.236;21.134;2022-08-03T03:29:49;100542.50;;;16.00;100.00
32486;BME280;18935;52.236;21.134;2022-08-03T03:32:14;100547.00;;;15.98;100.00
32486;BME280;18935;52.236;21.134;2022-08-03T03:34:41;100535.63;;;15.98;100.00
32486;BME280;18935;52.236;21.134;2022-08-03T03:37:06;100547.16;;;15.95;100.00
32486;BME280;18935;52.236;21.134;2022-08-03T03:39:32;100536.09;;;16.06;100.00
32486;BME280;18935;52.236;21.134;2022-08-03T03:41:58;100537.69;;;16.08;100.00
32486;BME280;18935;52.236;21.134;2022-08-03T03:44:28;100540.03;;;16.15;100.00
32486;BME280;18935;52.236;21.134;2022-08-03T03:46:55;100536.38;;;16.17;100.00
32486;BME280;18935;52.236;21.134;2022-08-03T03:49:21;100546.13;;;16.32;100.00
32486;BME280;18935;52.236;21.134;2022-08-03T03:51:46;100543.97;;;16.40;100.00
32486;BME280;18935;52.236;21.134;2022-08-03T03:54:12;100540.56;;;16.38;100.00
32486;BME280;18935;52.236;21.134;2022-08-03T03:56:37;100545.84;;;16.38;100.00
32486;BME280;18935;52.236;21.134;2022-08-03T03:59:02;100549.00;;;16.45;100.00
32486;BME280;18935;52.236;21.134;2022-08-03T04:01:28;100552.19;;;16.52;100.00
32486;BME280;18935;52.236;21.134;2022-08-03T04:03:53;100544.72;;;16.60;100.00
32486;BME280;18935;52.236;21.134;2022-08-03T04:06:19;100551.38;;;16.67;100.00
32486;BME280;18935;52.236;21.134;2022-08-03T04:09:03;100552.94;;;16.71;100.00
32486;BME280;18935;52.236;21.134;2022-08-03T04:11:51;100550.91;;;16.76;100.00
32486;BME280;18935;52.236;21.134;2022-08-03T04:14:19;100560.59;;;16.76;100.00
32486;BME280;18935;52.236;21.134;2022-08-03T04:17:07;100560.97;;;16.85;100.00
32486;BME280;18935;52.236;21.134;2022-08-03T04:19:36;100567.53;;;16.94;100.00
32486;BME280;18935;52.236;21.134;2022-08-03T04:22:05;100565.69;;;16.96;100.00
32486;BME280;18935;52.236;21.134;2022-08-03T04:24:38;100572.38;;;17.02;100.00
32486;BME280;18935;52.236;21.134;2022-08-03T04:27:05;100574.88;;;17.05;100.00
32486;BME280;18935;52.236;21.134;2022-08-03T04:29:33;100570.38;;;17.22;100.00
32486;BME280;18935;52.236;21.134;2022-08-03T04:31:59;100572.59;;;17.30;100.00
32486;BME280;18935;52.236;21.134;2022-08-03T04:34:26;100581.56;;;17.43;100.00
32486;BME280;18935;52.236;21.134;2022-08-03T04:36:58;100584.63;;;17.51;100.00
32486;BME280;18935;52.236;21.134;2022-08-03T04:39:24;100587.84;;;17.57;100.00
32486;BME280;18935;52.236;21.134;2022-08-03T04:41:53;100585.56;;;17.66;100.00
32486;BME280;18935;52.236;21.134;2022-08-03T04:44:21;100579.69;;;17.77;100.00
32486;BME280;18935;52.236;21.134;2022-08-03T04:46:47;100587.44;;;17.96;100.00
32486;BME280;18935;52.236;21.134;2022-08-03T04:49:17;100590.78;;;18.14;100.00
32486;BME280;18935;52.236;21.134;2022-08-03T04:51:44;100587.66;;;18.37;100.00
32486;BME280;18935;52.236;21.134;2022-08-03T04:54:13;100595.41;;;18.54;100.00
32486;BME280;18935;52.236;21.134;2022-08-03T04:56:40;100596.94;;;18.58;100.00
32486;BME280;18935;52.236;21.134;2022-08-03T04:59:06;100602.03;;;18.61;100.00
32486;BME280;18935;52.236;21.134;2022-08-03T05:01:31;100597.38;;;18.67;100.00
32486;BME280;18935;52.236;21.134;2022-08-03T05:03:56;100591.91;;;18.84;100.00
32486;BME280;18935;52.236;21.134;2022-08-03T05:06:22;100597.88;;;18.87;100.00
32486;BME280;18935;52.236;21.134;2022-08-03T05:08:47;100599.22;;;18.95;100.00
32486;BME280;18935;52.236;21.134;2022-08-03T05:11:14;100594.47;;;19.14;100.00
32486;BME280;18935;52.236;21.134;2022-08-03T05:13:40;100592.56;;;19.16;100.00
32486;BME280;18935;52.236;21.134;2022-08-03T05:16:06;100596.84;;;19.04;100.00
32486;BME280;18935;52.236;21.134;2022-08-03T05:18:31;100604.56;;;19.07;100.00
32486;BME280;18935;52.236;21.134;2022-08-03T05:20:56;100608.38;;;19.03;100.00
32486;BME280;18935;52.236;21.134;2022-08-03T05:23:22;100610.63;;;19.09;100.00
32486;BME280;18935;52.236;21.134;2022-08-03T05:25:48;100614.03;;;18.97;100.00
32486;BME280;18935;52.236;21.134;2022-08-03T05:28:14;100606.09;;;19.11;100.00
32486;BME280;18935;52.236;21.134;2022-08-03T05:30:39;100606.25;;;19.08;100.00
32486;BME280;18935;52.236;21.134;2022-08-03T05:33:04;100610.53;;;19.11;100.00
32486;BME280;18935;52.236;21.134;2022-08-03T05:35:31;100616.47;;;19.14;100.00
32486;BME280;18935;52.236;21.134;2022-08-03T05:37:56;100606.16;;;19.24;100.00
32486;BME280;18935;52.236;21.134;2022-08-03T05:40:22;100612.50;;;19.36;100.00
32486;BME280;18935;52.236;21.134;2022-08-03T05:42:47;100607.28;;;19.49;100.00
32486;BME280;18935;52.236;21.134;2022-08-03T05:45:13;100613.97;;;19.68;100.00
32486;BME280;18935;52.236;21.134;2022-08-03T05:47:40;100613.78;;;19.98;100.00
32486;BME280;18935;52.236;21.134;2022-08-03T05:50:06;100618.13;;;20.26;99.87
32486;BME280;18935;52.236;21.134;2022-08-03T05:52:32;100612.63;;;20.30;98.68
32486;BME280;18935;52.236;21.134;2022-08-03T05:54:57;100615.72;;;20.36;98.71
32486;BME280;18935;52.236;21.134;2022-08-03T05:57:24;100620.78;;;20.39;100.00
32486;BME280;18935;52.236;21.134;2022-08-03T05:59:50;100612.22;;;20.36;100.00
32486;BME280;18935;52.236;21.134;2022-08-03T06:02:16;100621.97;;;20.35;100.00
32486;BME280;18935;52.236;21.134;2022-08-03T06:04:41;100617.19;;;20.27;100.00
32486;BME280;18935;52.236;21.134;2022-08-03T06:07:10;100624.91;;;20.18;100.00
32486;BME280;18935;52.236;21.134;2022-08-03T06:09:36;100626.88;;;20.14;100.00
32486;BME280;18935;52.236;21.134;2022-08-03T06:12:01;100629.28;;;20.05;100.00
32486;BME280;18935;52.236;21.134;2022-08-03T06:14:29;100634.97;;;19.98;100.00
32486;BME280;18935;52.236;21.134;2022-08-03T06:16:55;100630.88;;;20.07;100.00
32486;BME280;18935;52.236;21.134;2022-08-03T06:19:20;100636.56;;;20.28;100.00
32486;BME280;18935;52.236;21.134;2022-08-03T06:21:47;100644.97;;;20.74;100.00
32486;BME280;18935;52.236;21.134;2022-08-03T06:24:12;100632.09;;;21.57;97.08
32486;BME280;18935;52.236;21.134;2022-08-03T06:26:38;100639.81;;;22.45;90.06
32486;BME280;18935;52.236;21.134;2022-08-03T06:29:04;100639.88;;;23.02;86.15
32486;BME280;18935;52.236;21.134;2022-08-03T06:31:38;100644.22;;;23.37;83.69
32486;BME280;18935;52.236;21.134;2022-08-03T06:34:06;100643.28;;;23.16;83.54
32486;BME280;18935;52.236;21.134;2022-08-03T06:36:31;100649.22;;;22.73;84.91
32486;BME280;18935;52.236;21.134;2022-08-03T06:38:57;100650.31;;;22.82;83.43
32486;BME280;18935;52.236;21.134;2022-08-03T06:41:24;100648.34;;;23.19;83.19
32486;BME280;18935;52.236;21.134;2022-08-03T06:43:50;100644.13;;;23.16;82.81
32486;BME280;18935;52.236;21.134;2022-08-03T06:46:15;100652.38;;;22.78;85.06
32486;BME280;18935;52.236;21.134;2022-08-03T06:48:43;100643.00;;;22.61;86.98
32486;BME280;18935;52.236;21.134;2022-08-03T06:51:08;100641.50;;;22.35;88.34
32486;BME280;18935;52.236;21.134;2022-08-03T06:53:34;100645.22;;;22.32;89.56
32486;BME280;18935;52.236;21.134;2022-08-03T06:55:59;100636.41;;;22.08;91.65
32486;BME280;18935;52.236;21.134;2022-08-03T06:58:25;100643.16;;;21.88;91.85
32486;BME280;18935;52.236;21.134;2022-08-03T07:00:51;100643.38;;;21.85;93.50
32486;BME280;18935;52.236;21.134;2022-08-03T07:03:16;100639.88;;;21.84;94.45
32486;BME280;18935;52.236;21.134;2022-08-03T07:05:43;100640.41;;;21.77;93.75
32486;BME280;18935;52.236;21.134;2022-08-03T07:08:11;100642.69;;;21.70;94.14
32486;BME280;18935;52.236;21.134;2022-08-03T07:10:37;100644.38;;;21.71;93.97
32486;BME280;18935;52.236;21.134;2022-08-03T07:13:02;100652.13;;;21.74;94.46
32486;BME280;18935;52.236;21.134;2022-08-03T07:15:28;100658.09;;;21.65;95.73
32486;BME280;18935;52.236;21.134;2022-08-03T07:17:53;100657.13;;;21.66;93.21
32486;BME280;18935;52.236;21.134;2022-08-03T07:20:19;100650.25;;;21.63;94.15
32486;BME280;18935;52.236;21.134;2022-08-03T07:22:45;100643.34;;;21.61;93.63
32486;BME280;18935;52.236;21.134;2022-08-03T07:25:10;100643.97;;;21.64;93.72
32486;BME280;18935;52.236;21.134;2022-08-03T07:27:36;100649.06;;;21.68;93.30
32486;BME280;18935;52.236;21.134;2022-08-03T07:30:05;100648.91;;;21.82;92.40
32486;BME280;18935;52.236;21.134;2022-08-03T07:32:30;100653.00;;;21.99;92.02
32486;BME280;18935;52.236;21.134;2022-08-03T07:34:56;100646.25;;;22.18;92.33
32486;BME280;18935;52.236;21.134;2022-08-03T07:37:21;100652.81;;;22.61;87.75
32486;BME280;18935;52.236;21.134;2022-08-03T07:39:47;100654.38;;;22.87;86.07
32486;BME280;18935;52.236;21.134;2022-08-03T07:42:12;100656.75;;;22.79;84.64
32486;BME280;18935;52.236;21.134;2022-08-03T07:44:38;100652.69;;;22.86;85.02
32486;BME280;18935;52.236;21.134;2022-08-03T07:47:03;100661.38;;;22.99;84.20
32486;BME280;18935;52.236;21.134;2022-08-03T07:49:29;100655.50;;;22.72;84.72
32486;BME280;18935;52.236;21.134;2022-08-03T07:51:54;100656.44;;;22.60;85.85
32486;BME280;18935;52.236;21.134;2022-08-03T07:54:38;100655.19;;;22.53;85.98
32486;BME280;18935;52.236;21.134;2022-08-03T07:57:03;100657.38;;;22.47;87.01
32486;BME280;18935;52.236;21.134;2022-08-03T07:59:28;100660.19;;;22.57;87.85
32486;BME280;18935;52.236;21.134;2022-08-03T08:01:54;100658.81;;;22.52;89.21
32486;BME280;18935;52.236;21.134;2022-08-03T08:04:23;100662.44;;;22.51;87.20
32486;BME280;18935;52.236;21.134;2022-08-03T08:06:52;100661.38;;;22.99;86.48
32486;BME280;18935;52.236;21.134;2022-08-03T08:09:17;100658.47;;;24.03;80.33
32486;BME280;18935;52.236;21.134;2022-08-03T08:11:49;100665.03;;;24.63;76.99
32486;BME280;18935;52.236;21.134;2022-08-03T08:14:17;100668.84;;;24.91;76.48
32486;BME280;18935;52.236;21.134;2022-08-03T08:16:43;100668.28;;;24.88;73.61
32486;BME280;18935;52.236;21.134;2022-08-03T08:19:08;100668.25;;;25.30;70.62
32486;BME280;18935;52.236;21.134;2022-08-03T08:21:33;100667.91;;;25.74;70.67
32486;BME280;18935;52.236;21.134;2022-08-03T08:23:58;100672.47;;;26.22;65.55
32486;BME280;18935;52.236;21.134;2022-08-03T08:26:24;100681.81;;;26.76;66.18
32486;BME280;18935;52.236;21.134;2022-08-03T08:28:49;100679.47;;;27.20;62.60
32486;BME280;18935;52.236;21.134;2022-08-03T08:31:16;100681.44;;;27.92;61.62
32486;BME280;18935;52.236;21.134;2022-08-03T08:33:41;100680.63;;;28.10;59.44
32486;BME280;18935;52.236;21.134;2022-08-03T08:36:07;100680.44;;;28.39;58.75
32486;BME280;18935;52.236;21.134;2022-08-03T08:38:33;100680.38;;;28.92;58.09
32486;BME280;18935;52.236;21.134;2022-08-03T08:40:59;100678.56;;;28.57;57.21
32486;BME280;18935;52.236;21.134;2022-08-03T08:43:24;100677.41;;;28.60;56.29
32486;BME280;18935;52.236;21.134;2022-08-03T08:45:52;100688.56;;;28.91;54.64
32486;BME280;18935;52.236;21.134;2022-08-03T08:48:23;100678.00;;;29.49;53.61
32486;BME280;18935;52.236;21.134;2022-08-03T08:50:59;100677.19;;;29.49;53.39
32486;BME280;18935;52.236;21.134;2022-08-03T08:53:27;100680.59;;;29.25;52.25
32486;BME280;18935;52.236;21.134;2022-08-03T08:55:54;100683.09;;;29.26;51.48
32486;BME280;18935;52.236;21.134;2022-08-03T08:58:23;100676.78;;;29.61;51.41
32486;BME280;18935;52.236;21.134;2022-08-03T09:00:50;100685.50;;;29.63;50.23
32486;BME280;18935;52.236;21.134;2022-08-03T09:03:15;100679.22;;;29.97;49.04
32486;BME280;18935;52.236;21.134;2022-08-03T09:05:42;100679.63;;;30.18;47.14
32486;BME280;18935;52.236;21.134;2022-08-03T09:08:08;100680.06;;;29.98;47.95
32486;BME280;18935;52.236;21.134;2022-08-03T09:10:33;100677.63;;;30.29;46.86
32486;BME280;18935;52.236;21.134;2022-08-03T09:12:59;100683.69;;;30.31;48.33
32486;BME280;18935;52.236;21.134;2022-08-03T09:17:54;100670.53;;;30.11;47.85
32486;BME280;18935;52.236;21.134;2022-08-03T09:20:22;100675.28;;;30.50;45.05
32486;BME280;18935;52.236;21.134;2022-08-03T09:25:35;100677.84;;;30.76;43.72
32486;BME280;18935;52.236;21.134;2022-08-03T09:30:31;100676.31;;;30.49;44.02
32486;BME280;18935;52.236;21.134;2022-08-03T09:33:03;100668.06;;;30.51;43.12
32486;BME280;18935;52.236;21.134;2022-08-03T09:35:29;100670.44;;;30.62;43.12
32486;BME280;18935;52.236;21.134;2022-08-03T09:38:24;100666.19;;;30.18;41.89
32486;BME280;18935;52.236;21.134;2022-08-03T09:40:53;100671.56;;;30.10;43.17
32486;BME280;18935;52.236;21.134;2022-08-03T09:43:19;100667.28;;;29.83;43.80
32486;BME280;18935;52.236;21.134;2022-08-03T09:45:44;100664.19;;;30.53;43.38
32486;BME280;18935;52.236;21.134;2022-08-03T09:50:53;100666.25;;;30.76;43.17
32486;BME280;18935;52.236;21.134;2022-08-03T09:53:19;100670.94;;;30.98;41.77
32486;BME280;18935;52.236;21.134;2022-08-03T09:55:55;100666.94;;;31.41;41.02
32486;BME280;18935;52.236;21.134;2022-08-03T09:58:22;100663.28;;;31.26;41.95
32486;BME280;18935;52.236;21.134;2022-08-03T10:03:27;100663.38;;;31.49;38.96
32486;BME280;18935;52.236;21.134;2022-08-03T10:05:53;100668.16;;;31.39;42.00
32486;BME280;18935;52.236;21.134;2022-08-03T10:08:19;100662.41;;;31.81;38.32
32486;BME280;18935;52.236;21.134;2022-08-03T10:10:47;100663.63;;;31.78;40.86
32486;BME280;18935;52.236;21.134;2022-08-03T10:13:14;100659.03;;;31.40;38.93
32486;BME280;18935;52.236;21.134;2022-08-03T10:15:40;100650.22;;;30.98;40.92
32486;BME280;18935;52.236;21.134;2022-08-03T10:18:06;100664.03;;;30.55;41.10
32486;BME280;18935;52.236;21.134;2022-08-03T10:20:38;100655.72;;;30.07;41.60
32486;BME280;18935;52.236;21.134;2022-08-03T10:23:06;100653.94;;;29.74;43.27
32486;BME280;18935;52.236;21.134;2022-08-03T10:25:32;100661.88;;;29.49;43.17
32486;BME280;18935;52.236;21.134;2022-08-03T10:28:00;100659.59;;;29.28;45.87
32486;BME280;18935;52.236;21.134;2022-08-03T10:30:28;100653.28;;;29.38;45.60
32486;BME280;18935;52.236;21.134;2022-08-03T10:35:25;100661.06;;;29.49;45.66
32486;BME280;18935;52.236;21.134;2022-08-03T10:37:55;100657.69;;;29.89;43.48
32486;BME280;18935;52.236;21.134;2022-08-03T10:40:29;100658.91;;;30.03;43.93
32486;BME280;18935;52.236;21.134;2022-08-03T10:42:58;100660.66;;;30.53;40.99
32486;BME280;18935;52.236;21.134;2022-08-03T10:45:28;100664.00;;;30.95;41.68
32486;BME280;18935;52.236;21.134;2022-08-03T10:47:56;100660.84;;;30.92;44.26
32486;BME280;18935;52.236;21.134;2022-08-03T10:50:24;100657.03;;;31.34;42.27
32486;BME280;18935;52.236;21.134;2022-08-03T10:53:04;100656.97;;;31.50;42.41
32486;BME280;18935;52.236;21.134;2022-08-03T10:55:43;100647.94;;;32.05;41.94
32486;BME280;18935;52.236;21.134;2022-08-03T11:01:08;100655.50;;;32.09;38.55
32486;BME280;18935;52.236;21.134;2022-08-03T11:06:20;100645.72;;;32.54;39.15
32486;BME280;18935;52.236;21.134;2022-08-03T11:11:39;100645.75;;;31.77;38.30
32486;BME280;18935;52.236;21.134;2022-08-03T11:14:13;100654.75;;;31.93;38.57
32486;BME280;18935;52.236;21.134;2022-08-03T11:16:41;100654.06;;;31.99;36.45
32486;BME280;18935;52.236;21.134;2022-08-03T11:19:08;100655.13;;;32.13;36.04
32486;BME280;18935;52.236;21.134;2022-08-03T11:27:16;100643.06;;;31.77;39.10
32486;BME280;18935;52.236;21.134;2022-08-03T11:40:39;100636.78;;;31.85;36.03
32486;BME280;18935;52.236;21.134;2022-08-03T11:50:57;100631.13;;;31.95;35.16
32486;BME280;18935;52.236;21.134;2022-08-03T11:53:23;100628.66;;;31.54;35.84
32486;BME280;18935;52.236;21.134;2022-08-03T11:55:49;100627.41;;;31.25;37.68
32486;BME280;18935;52.236;21.134;2022-08-03T11:58:16;100621.22;;;31.56;38.88
32486;BME280;18935;52.236;21.134;2022-08-03T12:00:41;100624.66;;;31.81;37.54
32486;BME280;18935;52.236;21.134;2022-08-03T12:03:12;100616.84;;;31.55;38.71
32486;BME280;18935;52.236;21.134;2022-08-03T12:05:50;100625.00;;;31.39;38.20
32486;BME280;18935;52.236;21.134;2022-08-03T12:08:31;100618.13;;;31.67;37.46
32486;BME280;18935;52.236;21.134;2022-08-03T12:10:58;100617.31;;;31.11;37.32
32486;BME280;18935;52.236;21.134;2022-08-03T12:13:24;100625.22;;;31.29;37.44
32486;BME280;18935;52.236;21.134;2022-08-03T12:15:56;100610.50;;;31.40;36.85
32486;BME280;18935;52.236;21.134;2022-08-03T12:18:23;100613.53;;;31.45;38.67
32486;BME280;18935;52.236;21.134;2022-08-03T12:20:51;100612.25;;;31.64;37.10
32486;BME280;18935;52.236;21.134;2022-08-03T12:23:17;100612.69;;;31.44;38.04
32486;BME280;18935;52.236;21.134;2022-08-03T12:25:44;100614.63;;;31.59;38.76
32486;BME280;18935;52.236;21.134;2022-08-03T12:30:38;100608.28;;;31.74;37.32
32486;BME280;18935;52.236;21.134;2022-08-03T12:33:15;100616.78;;;31.32;36.07
32486;BME280;18935;52.236;21.134;2022-08-03T12:35:40;100605.50;;;31.20;36.70
32486;BME280;18935;52.236;21.134;2022-08-03T12:38:06;100602.19;;;31.10;37.27
32486;BME280;18935;52.236;21.134;2022-08-03T12:40:31;100604.50;;;31.21;39.31
32486;BME280;18935;52.236;21.134;2022-08-03T12:42:57;100604.78;;;30.63;37.72
32486;BME280;18935;52.236;21.134;2022-08-03T12:45:27;100601.91;;;30.89;39.99
32486;BME280;18935;52.236;21.134;2022-08-03T12:47:54;100598.66;;;31.10;38.88
32486;BME280;18935;52.236;21.134;2022-08-03T12:50:28;100596.72;;;30.63;36.09
32486;BME280;18935;52.236;21.134;2022-08-03T12:52:54;100595.72;;;30.56;36.94
32486;BME280;18935;52.236;21.134;2022-08-03T12:55:23;100591.03;;;30.17;36.39
32486;BME280;18935;52.236;21.134;2022-08-03T12:57:51;100595.03;;;30.13;39.01
32486;BME280;18935;52.236;21.134;2022-08-03T13:00:18;100584.75;;;30.00;38.00
32486;BME280;18935;52.236;21.134;2022-08-03T13:02:44;100590.13;;;29.92;36.63
32486;BME280;18935;52.236;21.134;2022-08-03T13:05:11;100586.41;;;29.69;37.33
32486;BME280;18935;52.236;21.134;2022-08-03T13:07:41;100584.81;;;30.16;40.23
32486;BME280;18935;52.236;21.134;2022-08-03T13:10:07;100571.63;;;30.05;38.32
32486;BME280;18935;52.236;21.134;2022-08-03T13:12:45;100567.78;;;30.08;39.22
32486;BME280;18935;52.236;21.134;2022-08-03T13:15:10;100576.91;;;30.31;38.08
32486;BME280;18935;52.236;21.134;2022-08-03T13:17:36;100570.84;;;30.37;38.18
32486;BME280;18935;52.236;21.134;2022-08-03T13:20:01;100572.84;;;30.35;39.02
32486;BME280;18935;52.236;21.134;2022-08-03T13:22:27;100580.03;;;30.59;38.42
32486;BME280;18935;52.236;21.134;2022-08-03T13:24:57;100577.91;;;30.47;38.48
32486;BME280;18935;52.236;21.134;2022-08-03T13:27:23;100579.41;;;30.25;38.93
32486;BME280;18935;52.236;21.134;2022-08-03T13:29:48;100569.13;;;30.28;38.79
32486;BME280;18935;52.236;21.134;2022-08-03T13:32:14;100559.06;;;30.30;38.34
32486;BME280;18935;52.236;21.134;2022-08-03T13:34:39;100557.38;;;30.13;38.18
32486;BME280;18935;52.236;21.134;2022-08-03T13:37:05;100563.41;;;29.90;38.69